createdAt,value
2018-05-09T00:00:41.965Z,20.80
2018-05-09T00:03:08.418Z,21.30
2018-05-09T00:05:34.894Z,19.90
2018-05-09T00:08:01.464Z,19.73
2018-05-09T00:10:27.932Z,20.80
2018-05-09T00:12:54.360Z,19.83
2018-05-09T00:15:20.832Z,19.77
2018-05-09T00:17:47.299Z,19.60
2018-05-09T00:20:14.440Z,21.83
2018-05-09T00:25:34.313Z,21.17
2018-05-09T00:28:00.654Z,19.83
2018-05-09T00:30:27.128Z,21.73
2018-05-09T00:32:53.523Z,20.10
2018-05-09T00:35:19.868Z,21.40
2018-05-09T00:37:46.256Z,21.80
2018-05-09T00:40:12.701Z,23.30
2018-05-09T00:42:39.068Z,23.77
2018-05-09T00:45:05.494Z,23.70
2018-05-09T00:47:31.919Z,23.33
2018-05-09T00:49:58.329Z,24.27
2018-05-09T00:52:24.740Z,24.43
2018-05-09T00:54:51.184Z,24.30
2018-05-09T00:57:17.524Z,25.13
2018-05-09T00:59:44.092Z,24.87
2018-05-09T01:02:10.528Z,24.60
2018-05-09T01:04:37.046Z,24.97
2018-05-09T01:07:03.621Z,25.17
2018-05-09T01:09:30.827Z,27.03
2018-05-09T01:11:57.242Z,28.50
2018-05-09T01:14:23.817Z,32.00
2018-05-09T01:16:50.286Z,32.60
2018-05-09T01:19:16.818Z,33.30
2018-05-09T01:21:43.332Z,34.67
2018-05-09T01:24:09.845Z,34.20
2018-05-09T01:26:36.266Z,35.20
2018-05-09T01:29:02.762Z,37.13
2018-05-09T01:31:29.158Z,37.30
2018-05-09T01:33:55.528Z,39.70
2018-05-09T01:36:21.910Z,41.60
2018-05-09T01:38:56.236Z,42.10
2018-05-09T01:41:22.699Z,43.03
2018-05-09T01:43:49.846Z,44.63
2018-05-09T01:46:16.303Z,46.07
2018-05-09T01:48:43.467Z,48.27
2018-05-09T01:51:10.033Z,49.07
2018-05-09T01:53:36.441Z,53.83
2018-05-09T01:56:02.852Z,51.27
2018-05-09T01:58:29.348Z,52.87
2018-05-09T02:00:55.771Z,56.13
2018-05-09T02:03:22.232Z,56.77
2018-05-09T02:05:48.782Z,58.83
2018-05-09T02:08:15.280Z,59.97
2018-05-09T02:10:41.582Z,61.53
2018-05-09T02:13:07.936Z,64.83
2018-05-09T02:15:35.141Z,67.27
2018-05-09T02:18:01.628Z,66.10
2018-05-09T02:20:31.384Z,70.00
2018-05-09T02:22:58.448Z,72.10
2018-05-09T02:25:24.769Z,69.30
2018-05-09T02:27:51.204Z,71.93
2018-05-09T02:30:17.606Z,70.17
2018-05-09T02:32:44.104Z,71.80
2018-05-09T02:35:10.505Z,71.47
2018-05-09T02:37:37.003Z,75.47
2018-05-09T02:40:03.367Z,74.20
2018-05-09T02:42:29.919Z,73.97
2018-05-09T02:44:56.377Z,72.33
2018-05-09T02:47:22.735Z,74.00
2018-05-09T02:49:49.229Z,73.47
2018-05-09T02:52:15.522Z,75.17
2018-05-09T02:54:42.658Z,78.23
2018-05-09T02:57:09.836Z,76.63
2018-05-09T02:59:36.985Z,76.53
2018-05-09T03:02:04.076Z,79.00
2018-05-09T03:04:30.490Z,78.03
2018-05-09T03:06:56.916Z,79.30
2018-05-09T03:09:23.325Z,81.17
2018-05-09T03:11:50.459Z,80.27
2018-05-09T03:14:16.877Z,82.93
2018-05-09T03:16:43.183Z,80.43
2018-05-09T03:19:10.302Z,84.23
2018-05-09T03:21:36.596Z,84.20
2018-05-09T03:24:03.153Z,81.23
2018-05-09T03:26:30.250Z,83.03
2018-05-09T03:28:56.578Z,83.40
2018-05-09T03:31:22.907Z,84.70
2018-05-09T03:33:49.394Z,83.50
2018-05-09T03:36:16.549Z,87.37
2018-05-09T03:38:43.642Z,82.67
2018-05-09T03:41:10.067Z,85.10
2018-05-09T03:43:36.439Z,80.90
2018-05-09T03:46:02.831Z,79.23
2018-05-09T03:48:29.227Z,83.80
2018-05-09T03:50:55.617Z,83.30
2018-05-09T03:53:22.044Z,82.50
2018-05-09T03:55:48.347Z,84.80
2018-05-09T03:58:14.691Z,79.93
2018-05-09T04:00:41.017Z,83.47
2018-05-09T04:03:19.765Z,83.60
2018-05-09T04:05:58.297Z,79.57
2018-05-09T04:08:36.906Z,81.77
2018-05-09T04:11:04.244Z,80.77
2018-05-09T04:13:30.644Z,79.93
2018-05-09T04:15:57.043Z,81.90
2018-05-09T04:18:23.450Z,79.23
2018-05-09T04:20:49.808Z,79.33
2018-05-09T04:23:16.979Z,79.33
2018-05-09T04:25:44.099Z,78.43
2018-05-09T04:28:10.491Z,77.50
2018-05-09T04:30:36.892Z,80.37
2018-05-09T04:33:04.109Z,77.43
2018-05-09T04:35:30.724Z,80.50
2018-05-09T04:37:57.088Z,78.80
2018-05-09T04:40:24.252Z,79.17
2018-05-09T04:42:50.643Z,75.93
2018-05-09T04:45:16.995Z,76.03
2018-05-09T04:47:43.410Z,77.33
2018-05-09T04:50:09.866Z,78.30
2018-05-09T04:52:36.448Z,76.63
2018-05-09T04:55:03.011Z,75.33
2018-05-09T04:57:29.456Z,73.47
2018-05-09T04:59:55.871Z,74.73
2018-05-09T05:02:22.174Z,72.03
2018-05-09T05:04:49.197Z,74.07
2018-05-09T05:07:15.520Z,72.80
2018-05-09T05:09:42.809Z,71.77
2018-05-09T05:12:09.875Z,69.87
2018-05-09T05:14:36.192Z,67.87
2018-05-09T05:17:02.511Z,68.03
2018-05-09T05:19:28.809Z,67.20
2018-05-09T05:21:55.100Z,66.37
2018-05-09T05:24:21.422Z,64.60
2018-05-09T05:26:47.736Z,62.63
2018-05-09T05:29:14.118Z,61.80
2018-05-09T05:31:40.437Z,62.23
2018-05-09T05:34:06.744Z,61.30
2018-05-09T05:36:33.084Z,61.53
2018-05-09T05:38:59.407Z,58.03
2018-05-09T05:41:26.444Z,58.33
2018-05-09T05:43:53.484Z,56.00
2018-05-09T05:46:20.529Z,53.53
2018-05-09T05:48:47.603Z,52.97
2018-05-09T05:51:14.652Z,51.63
2018-05-09T05:53:40.994Z,52.97
2018-05-09T05:56:07.402Z,50.03
2018-05-09T05:58:33.665Z,52.60
2018-05-09T06:00:59.993Z,49.83
2018-05-09T06:03:26.303Z,50.30
2018-05-09T06:05:52.625Z,50.20
2018-05-09T06:08:20.117Z,49.33
2018-05-09T06:10:47.238Z,49.93
2018-05-09T06:13:13.583Z,48.37
2018-05-09T06:15:39.866Z,49.33
2018-05-09T06:18:06.175Z,48.43
2018-05-09T06:20:32.501Z,48.53
2018-05-09T06:22:58.801Z,45.93
2018-05-09T06:25:25.848Z,43.20
2018-05-09T06:27:52.156Z,44.07
2018-05-09T06:30:19.238Z,43.67
2018-05-09T06:32:45.667Z,43.07
2018-05-09T06:35:12.011Z,43.63
2018-05-09T06:37:38.369Z,40.60
2018-05-09T06:40:05.383Z,40.90
2018-05-09T06:42:31.720Z,42.20
2018-05-09T06:44:58.005Z,41.73
2018-05-09T06:47:24.339Z,42.37
2018-05-09T06:49:50.651Z,40.17
2018-05-09T06:52:16.967Z,42.37
2018-05-09T06:54:43.337Z,40.73
2018-05-09T06:57:10.380Z,39.80
2018-05-09T06:59:37.433Z,39.93
2018-05-09T07:02:04.647Z,40.40
2018-05-09T07:04:30.981Z,39.93
2018-05-09T07:06:57.537Z,39.27
2018-05-09T07:09:23.960Z,41.07
2018-05-09T07:11:50.364Z,40.50
2018-05-09T07:14:16.937Z,40.93
2018-05-09T07:26:23.288Z,36.53
2018-05-09T07:28:50.519Z,39.67
2018-05-09T07:31:16.889Z,36.30
2018-05-09T07:33:44.142Z,38.33
2018-05-09T07:36:10.593Z,37.67
2018-05-09T07:38:37.268Z,39.10
2018-05-09T07:41:03.667Z,38.53
2018-05-09T07:43:30.043Z,36.33
2018-05-09T07:45:56.647Z,34.00
2018-05-09T07:48:23.021Z,34.67
2018-05-09T07:50:49.500Z,34.50
2018-05-09T07:53:15.902Z,36.10
2018-05-09T07:55:42.995Z,36.00
2018-05-09T07:58:09.439Z,35.27
2018-05-09T08:00:35.838Z,35.43
2018-05-09T08:03:02.196Z,34.03
2018-05-09T08:05:28.688Z,34.60
2018-05-09T08:07:55.793Z,34.00
2018-05-09T08:10:22.104Z,32.93
2018-05-09T08:12:48.494Z,33.87
2018-05-09T08:15:14.807Z,32.73
2018-05-09T08:17:41.369Z,32.43
2018-05-09T08:20:07.809Z,33.83
2018-05-09T08:22:34.157Z,32.87
2018-05-09T08:25:00.510Z,32.53
2018-05-09T08:27:26.828Z,33.23
2018-05-09T08:29:53.152Z,30.87
2018-05-09T08:32:19.448Z,31.27
2018-05-09T08:34:46.495Z,31.40
2018-05-09T08:37:13.530Z,31.60
2018-05-09T08:39:39.863Z,30.47
2018-05-09T08:42:06.179Z,33.57
2018-05-09T08:44:32.481Z,33.53
2018-05-09T08:46:58.750Z,32.17
2018-05-09T08:49:25.096Z,31.47
2018-05-09T08:51:52.125Z,32.10
2018-05-09T08:54:18.477Z,32.43
2018-05-09T08:56:45.540Z,31.53
2018-05-09T08:59:11.863Z,31.50
2018-05-09T09:01:38.944Z,31.70
2018-05-09T09:04:05.350Z,30.65
2018-05-09T09:06:32.515Z,32.70
2018-05-09T09:08:58.787Z,33.17
2018-05-09T09:11:25.112Z,31.00
2018-05-09T09:13:51.418Z,31.33
2018-05-09T09:16:17.725Z,29.50
2018-05-09T09:18:44.878Z,31.40
2018-05-09T09:21:11.090Z,31.43
2018-05-09T09:23:37.387Z,32.23
2018-05-09T09:26:03.731Z,31.80
2018-05-09T09:28:30.051Z,32.60
2018-05-09T09:30:56.378Z,31.23
2018-05-09T09:33:22.690Z,29.83
2018-05-09T09:35:48.991Z,30.97
2018-05-09T09:38:16.040Z,30.88
2018-05-09T09:40:42.324Z,29.27
2018-05-09T09:43:08.664Z,29.50
2018-05-09T09:45:34.959Z,29.15
2018-05-09T09:48:01.254Z,30.10
2018-05-09T09:50:27.562Z,29.57
2018-05-09T09:52:53.855Z,29.70
2018-05-09T09:55:20.165Z,30.07
2018-05-09T09:57:46.485Z,30.30
2018-05-09T10:00:12.817Z,29.07
2018-05-09T10:02:39.834Z,28.23
2018-05-09T10:05:06.118Z,29.00
2018-05-09T10:07:32.421Z,30.17
2018-05-09T10:09:59.451Z,28.73
2018-05-09T10:12:27.219Z,28.57
2018-05-09T10:14:53.518Z,27.80
2018-05-09T10:17:19.808Z,28.70
2018-05-09T10:19:46.136Z,30.63
2018-05-09T10:22:12.437Z,26.40
2018-05-09T10:24:39.502Z,27.00
2018-05-09T10:27:06.818Z,27.83
2018-05-09T10:29:33.107Z,27.70
2018-05-09T10:31:59.428Z,23.93
2018-05-09T10:34:25.756Z,23.27
2018-05-09T10:36:52.061Z,23.43
2018-05-09T10:39:19.114Z,24.03
2018-05-09T10:41:46.166Z,25.03
2018-05-09T10:44:13.222Z,22.37
2018-05-09T10:46:40.290Z,22.87
2018-05-09T10:49:06.583Z,21.57
2018-05-09T10:51:32.903Z,26.03
2018-05-09T10:53:59.200Z,23.70
2018-05-09T10:56:25.536Z,24.30
2018-05-09T10:58:51.878Z,22.03
2018-05-09T11:01:18.192Z,21.53
2018-05-09T11:03:44.524Z,22.37
2018-05-09T11:06:10.807Z,23.60
2018-05-09T11:08:37.209Z,21.97
2018-05-09T11:11:03.544Z,23.93
2018-05-09T11:13:29.907Z,22.13
2018-05-09T11:15:57.044Z,22.17
2018-05-09T11:18:23.347Z,26.60
2018-05-09T11:20:49.653Z,24.70
2018-05-09T11:23:15.934Z,24.17
2018-05-09T11:25:42.235Z,23.77
2018-05-09T11:28:08.551Z,27.10
2018-05-09T11:30:34.851Z,23.70
2018-05-09T11:33:01.157Z,25.67
2018-05-09T11:35:27.455Z,24.97
2018-05-09T11:37:53.742Z,22.73
2018-05-09T11:40:20.852Z,23.73
2018-05-09T11:42:48.156Z,22.97
2018-05-09T11:45:15.077Z,23.20
2018-05-09T11:47:41.596Z,22.13
2018-05-09T11:50:07.915Z,21.60
2018-05-09T11:52:34.336Z,21.70
2018-05-09T11:55:00.684Z,20.43
2018-05-09T11:57:27.100Z,21.83
2018-05-09T11:59:53.472Z,22.07
2018-05-09T12:02:20.826Z,20.23
2018-05-09T12:04:47.245Z,19.00
2018-05-09T12:07:13.646Z,19.30
2018-05-09T12:22:35.088Z,17.87
2018-05-09T12:25:01.600Z,18.37
2018-05-09T12:27:28.098Z,18.57
2018-05-09T12:29:54.577Z,16.87
2018-05-09T12:32:21.134Z,16.13
2018-05-09T12:34:47.538Z,17.23
2018-05-09T12:37:14.012Z,17.03
2018-05-09T12:39:41.120Z,17.07
2018-05-09T12:42:07.510Z,15.50
2018-05-09T12:44:34.004Z,15.60
2018-05-09T12:47:00.381Z,14.70
2018-05-09T12:49:26.821Z,14.63
2018-05-09T12:51:53.228Z,15.03
2018-05-09T12:54:19.755Z,16.43
2018-05-09T12:56:46.057Z,14.77
2018-05-09T12:59:12.408Z,13.83
2018-05-09T13:01:38.827Z,13.93
2018-05-09T13:04:05.136Z,13.27
2018-05-09T13:06:31.528Z,13.57
2018-05-09T13:08:57.835Z,15.50
2018-05-09T13:11:24.127Z,16.67
2018-05-09T13:13:50.429Z,16.63
2018-05-09T13:16:16.731Z,15.67
2018-05-09T13:18:43.072Z,15.17
2018-05-09T13:21:09.385Z,15.30
2018-05-09T13:23:35.672Z,13.93
2018-05-09T13:26:01.991Z,15.87
2018-05-09T13:28:28.288Z,17.03
2018-05-09T13:30:54.605Z,14.13
2018-05-09T13:33:20.947Z,13.57
2018-05-09T13:35:47.239Z,15.03
2018-05-09T13:38:13.532Z,12.43
2018-05-09T13:40:40.582Z,11.60
2018-05-09T13:43:06.893Z,10.23
2018-05-09T13:45:33.198Z,10.90
2018-05-09T13:47:59.489Z,11.63
2018-05-09T13:50:25.790Z,12.77
2018-05-09T13:52:52.100Z,12.07
2018-05-09T13:55:18.387Z,13.13
2018-05-09T13:57:44.693Z,12.03
2018-05-09T14:00:12.813Z,12.63
2018-05-09T14:02:39.309Z,12.77
2018-05-09T14:05:05.591Z,11.43
2018-05-09T14:07:31.917Z,13.50
2018-05-09T14:09:58.254Z,12.37
2018-05-09T14:12:24.556Z,11.23
2018-05-09T14:14:50.911Z,12.53
2018-05-09T14:17:17.188Z,13.70
2018-05-09T14:19:44.236Z,12.77
2018-05-09T14:22:11.286Z,13.43
2018-05-09T14:24:38.356Z,14.97
2018-05-09T14:27:04.647Z,14.53
2018-05-09T14:29:31.691Z,16.37
2018-05-09T14:31:57.986Z,15.63
2018-05-09T14:34:24.275Z,14.90
2018-05-09T14:36:51.359Z,13.63
2018-05-09T14:39:19.568Z,15.43
2018-05-09T14:41:45.882Z,14.10
2018-05-09T14:44:12.188Z,13.50
2018-05-09T14:46:38.544Z,13.23
2018-05-09T14:49:05.557Z,13.40
2018-05-09T14:51:31.835Z,12.53
2018-05-09T14:53:58.141Z,12.07
2018-05-09T14:56:24.449Z,10.23
2018-05-09T14:58:50.775Z,9.70
2018-05-09T15:01:17.150Z,10.60
2018-05-09T15:03:43.493Z,9.80
2018-05-09T15:06:09.819Z,11.07
2018-05-09T15:08:36.153Z,9.40
2018-05-09T15:11:02.449Z,8.40
2018-05-09T15:13:28.769Z,7.53
2018-05-09T15:15:55.091Z,8.40
2018-05-09T15:18:21.385Z,7.67
2018-05-09T15:20:48.071Z,8.07
2018-05-09T15:23:14.379Z,9.33
2018-05-09T15:25:41.450Z,8.37
2018-05-09T15:28:08.076Z,8.73
2018-05-09T15:30:34.418Z,9.47
2018-05-09T15:33:00.707Z,10.13
2018-05-09T15:35:27.739Z,9.67
2018-05-09T15:37:54.045Z,10.13
2018-05-09T15:40:20.347Z,10.43
2018-05-09T15:42:46.661Z,10.60
2018-05-09T15:45:13.719Z,10.03
2018-05-09T15:47:40.755Z,11.40
2018-05-09T15:50:07.842Z,10.70
2018-05-09T15:52:34.147Z,12.13
2018-05-09T15:55:00.472Z,11.07
2018-05-09T15:57:27.510Z,10.57
2018-05-09T15:59:54.577Z,10.67
2018-05-09T16:02:20.894Z,9.93
2018-05-09T16:04:47.193Z,11.50
2018-05-09T16:07:13.492Z,9.87
2018-05-09T16:09:39.802Z,10.40
2018-05-09T16:12:06.091Z,9.80
2018-05-09T16:14:32.412Z,10.33
2018-05-09T16:16:58.721Z,10.30
2018-05-09T16:19:25.020Z,9.60
2018-05-09T16:21:51.352Z,10.03
2018-05-09T16:24:17.675Z,9.77
2018-05-09T16:26:44.009Z,9.30
2018-05-09T16:29:10.306Z,10.47
2018-05-09T16:31:36.602Z,9.77
2018-05-09T16:34:02.934Z,9.83
2018-05-09T16:36:29.256Z,9.67
2018-05-09T16:38:55.569Z,9.53
2018-05-09T16:41:21.888Z,9.73
2018-05-09T16:43:49.024Z,8.60
2018-05-09T16:46:16.111Z,9.90
2018-05-09T16:48:42.445Z,16.57
2018-05-09T16:51:08.865Z,8.87
2018-05-09T16:53:35.262Z,9.23
2018-05-09T16:56:01.695Z,9.17
2018-05-09T16:58:28.029Z,9.10
2018-05-09T17:00:54.395Z,9.97
2018-05-09T17:03:20.703Z,9.43
2018-05-09T17:05:47.794Z,9.67
2018-05-09T17:08:14.081Z,10.03
2018-05-09T17:10:41.267Z,10.03
2018-05-09T17:13:07.657Z,9.13
2018-05-09T17:15:34.049Z,8.37
2018-05-09T17:18:00.529Z,8.43
2018-05-09T17:20:26.813Z,10.63
2018-05-09T17:22:53.142Z,8.80
2018-05-09T17:25:19.850Z,8.30
2018-05-09T17:27:46.221Z,8.63
2018-05-09T17:30:12.543Z,8.50
2018-05-09T17:32:38.841Z,8.30
2018-05-09T17:35:06.209Z,8.87
2018-05-09T17:37:32.569Z,8.57
2018-05-09T17:39:58.898Z,8.80
2018-05-09T17:42:25.320Z,8.60
2018-05-09T17:44:51.630Z,8.60
2018-05-09T17:47:17.914Z,9.60
2018-05-09T17:49:44.230Z,9.60
2018-05-09T17:52:10.552Z,10.30
2018-05-09T17:54:36.924Z,10.17
2018-05-09T17:57:03.234Z,9.90
2018-05-09T17:59:29.549Z,9.07
2018-05-09T18:01:55.892Z,9.07
2018-05-09T18:04:22.208Z,8.63
2018-05-09T18:06:48.541Z,9.87
2018-05-09T18:09:14.905Z,9.70
2018-05-09T18:11:41.223Z,9.23
2018-05-09T18:14:07.539Z,10.07
2018-05-09T18:16:34.601Z,9.40
2018-05-09T18:19:04.329Z,8.90
2018-05-09T18:21:30.645Z,9.53
2018-05-09T18:23:56.964Z,9.87
2018-05-09T18:26:23.293Z,10.20
2018-05-09T18:28:49.711Z,9.70
2018-05-09T18:31:16.005Z,9.53
2018-05-09T18:33:43.059Z,9.93
2018-05-09T18:36:09.431Z,9.70
2018-05-09T18:38:35.758Z,9.67
2018-05-09T18:41:02.128Z,9.43
2018-05-09T18:43:28.516Z,10.23
2018-05-09T18:45:55.153Z,10.13
2018-05-09T18:48:22.650Z,9.40
2018-05-09T18:50:49.088Z,12.73
2018-05-09T18:53:15.606Z,9.83
2018-05-09T18:55:42.133Z,9.60
2018-05-09T18:58:08.679Z,9.43
2018-05-09T19:00:35.175Z,9.87
2018-05-09T19:03:01.633Z,9.40
2018-05-09T19:05:28.238Z,9.77
2018-05-09T19:07:54.763Z,9.63
2018-05-09T19:10:21.140Z,11.20
2018-05-09T19:12:47.602Z,10.67
2018-05-09T19:15:14.050Z,13.20
2018-05-09T19:17:40.595Z,19.97
2018-05-09T19:20:08.573Z,15.67
2018-05-09T19:22:34.984Z,13.93
2018-05-09T19:25:01.808Z,11.50
2018-05-09T19:27:28.362Z,11.13
2018-05-09T19:29:54.876Z,10.13
2018-05-09T19:32:21.371Z,11.17
2018-05-09T19:34:47.940Z,10.50
2018-05-09T19:37:14.421Z,10.60
2018-05-09T19:39:41.001Z,10.97
2018-05-09T19:42:07.484Z,11.40
2018-05-09T19:44:34.077Z,11.70
2018-05-09T19:47:00.671Z,11.80
2018-05-09T19:49:27.345Z,11.30
2018-05-09T19:51:54.683Z,11.03
2018-05-09T19:54:21.271Z,10.87
2018-05-09T19:56:48.005Z,10.67
2018-05-09T19:59:14.535Z,10.83
2018-05-09T20:01:41.193Z,10.47
2018-05-09T20:04:09.472Z,10.67
2018-05-09T20:06:37.113Z,11.10
2018-05-09T20:09:03.956Z,11.10
2018-05-09T20:11:30.394Z,11.30
2018-05-09T20:13:57.176Z,10.73
2018-05-09T20:16:25.566Z,10.80
2018-05-09T20:18:51.942Z,11.67
2018-05-09T20:21:18.366Z,10.33
2018-05-09T20:23:45.013Z,11.07
2018-05-09T20:26:11.670Z,10.83
2018-05-09T20:28:38.164Z,10.77
2018-05-09T20:34:21.513Z,11.50
2018-05-09T20:36:48.203Z,11.03
2018-05-09T20:39:15.522Z,10.90
2018-05-09T20:41:42.230Z,11.40
2018-05-09T20:44:10.038Z,12.30
2018-05-09T20:46:36.424Z,11.47
2018-05-09T20:49:02.887Z,11.87
2018-05-09T20:51:41.505Z,12.17
2018-05-09T20:54:07.843Z,11.83
2018-05-09T20:56:34.283Z,11.57
2018-05-09T20:59:00.779Z,12.10
2018-05-09T21:01:39.579Z,11.70
2018-05-09T21:04:05.910Z,11.70
2018-05-09T21:06:33.297Z,12.33
2018-05-09T21:08:59.741Z,11.97
2018-05-09T21:11:26.307Z,12.07
2018-05-09T21:13:52.960Z,12.30
2018-05-09T21:16:19.439Z,11.77
2018-05-09T21:18:45.997Z,12.27
2018-05-09T21:21:12.476Z,12.77
2018-05-09T21:23:40.668Z,11.70
2018-05-09T21:26:07.896Z,11.77
2018-05-09T21:28:34.328Z,12.23
2018-05-09T21:31:01.584Z,12.27
2018-05-09T21:33:28.083Z,12.30
2018-05-09T21:35:54.624Z,12.60
2018-05-09T21:38:21.073Z,11.93
2018-05-09T21:40:47.674Z,12.30
2018-05-09T21:43:14.085Z,12.03
2018-05-09T21:45:41.239Z,12.43
2018-05-09T21:48:08.387Z,12.80
2018-05-09T21:50:34.769Z,11.93
2018-05-09T21:53:01.241Z,11.10
2018-05-09T21:55:27.654Z,12.07
2018-05-09T21:57:54.142Z,12.47
2018-05-09T22:00:20.564Z,12.67
2018-05-09T22:02:47.042Z,13.03
2018-05-09T22:05:13.386Z,13.17
2018-05-09T22:07:39.849Z,13.53
2018-05-09T22:10:06.978Z,12.93
2018-05-09T22:12:33.334Z,14.10
2018-05-09T22:15:00.499Z,13.37
2018-05-09T22:17:27.689Z,14.40
2018-05-09T22:19:54.165Z,15.50
2018-05-09T22:22:21.379Z,14.93
2018-05-09T22:24:47.800Z,14.57
2018-05-09T22:27:15.019Z,15.40
2018-05-09T22:29:42.260Z,15.83
2018-05-09T22:32:08.713Z,15.37
2018-05-09T22:34:35.093Z,16.93
2018-05-09T22:37:01.641Z,16.93
2018-05-09T22:39:28.123Z,16.53
2018-05-09T22:41:54.812Z,17.10
2018-05-09T22:44:21.515Z,17.10
2018-05-09T22:46:48.133Z,17.33
2018-05-09T22:49:14.541Z,16.17
2018-05-09T22:51:41.098Z,17.00
2018-05-09T22:54:08.250Z,18.43
2018-05-09T22:56:34.622Z,17.80
2018-05-09T22:59:01.087Z,19.13
2018-05-09T23:01:27.456Z,18.87
2018-05-09T23:03:53.789Z,18.90
2018-05-09T23:06:20.247Z,19.90
2018-05-09T23:08:46.683Z,20.70
2018-05-09T23:11:13.069Z,19.77
2018-05-09T23:13:39.507Z,21.17
2018-05-09T23:16:06.710Z,21.53
2018-05-09T23:18:33.195Z,22.77
2018-05-09T23:21:00.374Z,22.07
2018-05-09T23:23:26.822Z,22.27
2018-05-09T23:25:53.471Z,24.07
2018-05-09T23:28:19.962Z,22.70
2018-05-09T23:30:46.288Z,22.60
2018-05-09T23:33:12.832Z,22.40
2018-05-09T23:35:39.288Z,23.40
2018-05-09T23:38:06.493Z,22.77
2018-05-09T23:40:33.113Z,23.57
2018-05-09T23:42:59.616Z,22.50
2018-05-09T23:45:26.102Z,23.13
2018-05-09T23:47:53.230Z,23.53
2018-05-09T23:50:19.806Z,22.53
2018-05-09T23:52:46.124Z,24.57
2018-05-09T23:55:12.608Z,23.00
2018-05-09T23:57:39.073Z,22.40
